sensor_id;sensor_type;location;lat;lon;timestamp;P1;durP1;ratioP1;P2;durP2;ratioP2
12585;SDS011;6358;50.760;0.282;2023-05-10T00:01:47;3.07;;;1.63;;
12585;SDS011;6358;50.760;0.282;2023-05-10T00:04:13;2.43;;;1.70;;
12585;SDS011;6358;50.760;0.282;2023-05-10T00:06:39;2.10;;;1.57;;
12585;SDS011;6358;50.760;0.282;2023-05-10T00:09:05;1.83;;;1.60;;
12585;SDS011;6358;50.760;0.282;2023-05-10T00:11:31;2.10;;;1.63;;
12585;SDS011;6358;50.760;0.282;2023-05-10T00:13:57;2.63;;;1.70;;
12585;SDS011;6358;50.760;0.282;2023-05-10T00:16:23;1.67;;;1.53;;
12585;SDS011;6358;50.760;0.282;2023-05-10T00:18:50;1.97;;;1.67;;
12585;SDS011;6358;50.760;0.282;2023-05-10T00:21:16;2.87;;;1.60;;
12585;SDS011;6358;50.760;0.282;2023-05-10T00:23:42;1.90;;;1.70;;
12585;SDS011;6358;50.760;0.282;2023-05-10T00:26:08;1.80;;;1.57;;
12585;SDS011;6358;50.760;0.282;2023-05-10T00:28:34;1.70;;;1.50;;
12585;SDS011;6358;50.760;0.282;2023-05-10T00:31:00;3.17;;;1.70;;
12585;SDS011;6358;50.760;0.282;2023-05-10T00:33:26;2.30;;;1.70;;
12585;SDS011;6358;50.760;0.282;2023-05-10T00:35:52;2.80;;;1.40;;
12585;SDS011;6358;50.760;0.282;2023-05-10T00:38:18;2.33;;;1.70;;
12585;SDS011;6358;50.760;0.282;2023-05-10T00:40:44;1.97;;;1.43;;
12585;SDS011;6358;50.760;0.282;2023-05-10T00:43:11;2.10;;;1.83;;
12585;SDS011;6358;50.760;0.282;2023-05-10T00:45:37;2.47;;;1.87;;
12585;SDS011;6358;50.760;0.282;2023-05-10T00:48:03;2.47;;;1.57;;
12585;SDS011;6358;50.760;0.282;2023-05-10T00:50:33;1.97;;;1.77;;
12585;SDS011;6358;50.760;0.282;2023-05-10T00:52:59;2.00;;;1.53;;
12585;SDS011;6358;50.760;0.282;2023-05-10T00:55:26;2.30;;;1.70;;
12585;SDS011;6358;50.760;0.282;2023-05-10T00:57:53;1.70;;;1.60;;
12585;SDS011;6358;50.760;0.282;2023-05-10T01:00:19;1.93;;;1.60;;
12585;SDS011;6358;50.760;0.282;2023-05-10T01:02:45;1.80;;;1.70;;
12585;SDS011;6358;50.760;0.282;2023-05-10T01:05:12;2.40;;;1.50;;
12585;SDS011;6358;50.760;0.282;2023-05-10T01:07:38;1.63;;;1.47;;
12585;SDS011;6358;50.760;0.282;2023-05-10T01:10:05;2.57;;;1.70;;
12585;SDS011;6358;50.760;0.282;2023-05-10T01:12:32;2.40;;;1.50;;
12585;SDS011;6358;50.760;0.282;2023-05-10T01:15:00;1.60;;;1.50;;
12585;SDS011;6358;50.760;0.282;2023-05-10T01:17:26;1.80;;;1.43;;
12585;SDS011;6358;50.760;0.282;2023-05-10T01:19:52;3.20;;;1.90;;
12585;SDS011;6358;50.760;0.282;2023-05-10T01:28:08;2.87;;;1.53;;
12585;SDS011;6358;50.760;0.282;2023-05-10T01:35:18;1.57;;;1.47;;
12585;SDS011;6358;50.760;0.282;2023-05-10T01:40:37;1.37;;;1.27;;
12585;SDS011;6358;50.760;0.282;2023-05-10T01:43:08;1.80;;;1.40;;
12585;SDS011;6358;50.760;0.282;2023-05-10T01:45:38;1.47;;;1.33;;
12585;SDS011;6358;50.760;0.282;2023-05-10T01:48:06;1.47;;;1.33;;
12585;SDS011;6358;50.760;0.282;2023-05-10T01:50:32;1.40;;;1.17;;
12585;SDS011;6358;50.760;0.282;2023-05-10T01:53:00;1.43;;;1.23;;
12585;SDS011;6358;50.760;0.282;2023-05-10T01:55:28;1.50;;;1.30;;
12585;SDS011;6358;50.760;0.282;2023-05-10T01:58:06;1.60;;;1.40;;
12585;SDS011;6358;50.760;0.282;2023-05-10T02:00:33;2.00;;;1.40;;
12585;SDS011;6358;50.760;0.282;2023-05-10T02:03:01;1.67;;;1.30;;
12585;SDS011;6358;50.760;0.282;2023-05-10T02:05:29;1.30;;;1.10;;
12585;SDS011;6358;50.760;0.282;2023-05-10T02:07:58;2.30;;;1.33;;
12585;SDS011;6358;50.760;0.282;2023-05-10T02:10:25;1.63;;;1.40;;
12585;SDS011;6358;50.760;0.282;2023-05-10T02:12:51;2.63;;;1.50;;
12585;SDS011;6358;50.760;0.282;2023-05-10T02:15:23;2.07;;;1.40;;
12585;SDS011;6358;50.760;0.282;2023-05-10T02:17:49;3.40;;;1.33;;
12585;SDS011;6358;50.760;0.282;2023-05-10T02:20:16;2.07;;;1.27;;
12585;SDS011;6358;50.760;0.282;2023-05-10T02:22:42;1.50;;;1.40;;
12585;SDS011;6358;50.760;0.282;2023-05-10T02:25:08;2.33;;;1.27;;
12585;SDS011;6358;50.760;0.282;2023-05-10T02:27:36;0.93;;;0.90;;
12585;SDS011;6358;50.760;0.282;2023-05-10T02:30:04;2.50;;;1.40;;
12585;SDS011;6358;50.760;0.282;2023-05-10T02:32:30;1.73;;;1.40;;
12585;SDS011;6358;50.760;0.282;2023-05-10T02:34:56;1.50;;;1.40;;
12585;SDS011;6358;50.760;0.282;2023-05-10T02:37:23;1.63;;;1.30;;
12585;SDS011;6358;50.760;0.282;2023-05-10T02:39:50;1.43;;;1.33;;
12585;SDS011;6358;50.760;0.282;2023-05-10T02:42:17;2.13;;;1.20;;
12585;SDS011;6358;50.760;0.282;2023-05-10T02:44:45;1.43;;;1.20;;
12585;SDS011;6358;50.760;0.282;2023-05-10T02:47:13;2.17;;;1.23;;
12585;SDS011;6358;50.760;0.282;2023-05-10T02:49:39;1.93;;;1.10;;
12585;SDS011;6358;50.760;0.282;2023-05-10T02:52:05;1.30;;;1.20;;
12585;SDS011;6358;50.760;0.282;2023-05-10T02:54:37;2.23;;;1.10;;
12585;SDS011;6358;50.760;0.282;2023-05-10T02:57:05;1.30;;;1.20;;
12585;SDS011;6358;50.760;0.282;2023-05-10T02:59:32;2.50;;;1.20;;
12585;SDS011;6358;50.760;0.282;2023-05-10T03:01:59;1.73;;;1.20;;
12585;SDS011;6358;50.760;0.282;2023-05-10T03:04:25;1.40;;;1.20;;
12585;SDS011;6358;50.760;0.282;2023-05-10T03:06:51;1.60;;;1.10;;
12585;SDS011;6358;50.760;0.282;2023-05-10T03:09:18;1.13;;;1.13;;
12585;SDS011;6358;50.760;0.282;2023-05-10T03:16:52;3.03;;;1.30;;
12585;SDS011;6358;50.760;0.282;2023-05-10T03:22:21;1.10;;;1.10;;
12585;SDS011;6358;50.760;0.282;2023-05-10T03:24:49;1.10;;;1.00;;
12585;SDS011;6358;50.760;0.282;2023-05-10T03:27:15;1.00;;;0.93;;
12585;SDS011;6358;50.760;0.282;2023-05-10T03:29:42;2.37;;;1.00;;
12585;SDS011;6358;50.760;0.282;2023-05-10T03:32:11;1.73;;;1.33;;
12585;SDS011;6358;50.760;0.282;2023-05-10T03:34:41;1.40;;;1.00;;
12585;SDS011;6358;50.760;0.282;2023-05-10T03:37:08;1.63;;;1.20;;
12585;SDS011;6358;50.760;0.282;2023-05-10T03:39:34;1.03;;;0.93;;
12585;SDS011;6358;50.760;0.282;2023-05-10T03:42:00;1.43;;;1.10;;
12585;SDS011;6358;50.760;0.282;2023-05-10T03:44:26;2.10;;;1.13;;
12585;SDS011;6358;50.760;0.282;2023-05-10T03:46:53;1.10;;;1.00;;
12585;SDS011;6358;50.760;0.282;2023-05-10T03:49:19;0.90;;;0.90;;
12585;SDS011;6358;50.760;0.282;2023-05-10T03:51:45;1.03;;;0.93;;
12585;SDS011;6358;50.760;0.282;2023-05-10T03:54:11;1.10;;;1.00;;
12585;SDS011;6358;50.760;0.282;2023-05-10T03:56:37;1.00;;;1.00;;
12585;SDS011;6358;50.760;0.282;2023-05-10T03:59:03;2.30;;;1.23;;
12585;SDS011;6358;50.760;0.282;2023-05-10T04:01:32;0.90;;;0.90;;
12585;SDS011;6358;50.760;0.282;2023-05-10T04:03:59;1.20;;;1.10;;
12585;SDS011;6358;50.760;0.282;2023-05-10T04:06:25;1.27;;;1.00;;
12585;SDS011;6358;50.760;0.282;2023-05-10T04:08:51;1.20;;;1.10;;
12585;SDS011;6358;50.760;0.282;2023-05-10T04:11:17;1.30;;;1.10;;
12585;SDS011;6358;50.760;0.282;2023-05-10T04:13:43;1.20;;;1.10;;
12585;SDS011;6358;50.760;0.282;2023-05-10T04:16:09;1.23;;;1.13;;
12585;SDS011;6358;50.760;0.282;2023-05-10T04:18:35;1.13;;;0.97;;
12585;SDS011;6358;50.760;0.282;2023-05-10T04:21:01;1.60;;;0.93;;
12585;SDS011;6358;50.760;0.282;2023-05-10T04:23:27;1.30;;;1.00;;
12585;SDS011;6358;50.760;0.282;2023-05-10T04:26:00;1.27;;;1.20;;
12585;SDS011;6358;50.760;0.282;2023-05-10T04:28:26;1.20;;;1.10;;
12585;SDS011;6358;50.760;0.282;2023-05-10T04:30:53;1.10;;;1.03;;
12585;SDS011;6358;50.760;0.282;2023-05-10T04:33:19;1.27;;;1.03;;
12585;SDS011;6358;50.760;0.282;2023-05-10T04:35:45;1.30;;;1.00;;
12585;SDS011;6358;50.760;0.282;2023-05-10T04:38:11;1.40;;;1.10;;
12585;SDS011;6358;50.760;0.282;2023-05-10T04:40:37;1.17;;;0.90;;
12585;SDS011;6358;50.760;0.282;2023-05-10T04:43:03;0.87;;;0.87;;
12585;SDS011;6358;50.760;0.282;2023-05-10T04:45:29;3.30;;;1.10;;
12585;SDS011;6358;50.760;0.282;2023-05-10T04:47:55;1.50;;;1.00;;
12585;SDS011;6358;50.760;0.282;2023-05-10T04:50:21;1.47;;;1.00;;
12585;SDS011;6358;50.760;0.282;2023-05-10T04:52:47;0.80;;;0.80;;
12585;SDS011;6358;50.760;0.282;2023-05-10T04:55:14;1.00;;;0.90;;
12585;SDS011;6358;50.760;0.282;2023-05-10T04:57:40;1.70;;;1.10;;
12585;SDS011;6358;50.760;0.282;2023-05-10T05:00:06;0.97;;;0.90;;
12585;SDS011;6358;50.760;0.282;2023-05-10T05:02:32;1.20;;;1.10;;
12585;SDS011;6358;50.760;0.282;2023-05-10T05:04:58;2.03;;;1.07;;
12585;SDS011;6358;50.760;0.282;2023-05-10T05:07:25;1.13;;;1.03;;
12585;SDS011;6358;50.760;0.282;2023-05-10T05:09:51;1.20;;;1.10;;
12585;SDS011;6358;50.760;0.282;2023-05-10T05:12:17;2.37;;;1.20;;
12585;SDS011;6358;50.760;0.282;2023-05-10T05:14:43;0.80;;;0.80;;
12585;SDS011;6358;50.760;0.282;2023-05-10T05:17:09;1.10;;;1.00;;
12585;SDS011;6358;50.760;0.282;2023-05-10T05:19:35;1.80;;;0.90;;
12585;SDS011;6358;50.760;0.282;2023-05-10T05:22:01;1.37;;;1.00;;
12585;SDS011;6358;50.760;0.282;2023-05-10T05:24:28;1.77;;;1.10;;
12585;SDS011;6358;50.760;0.282;2023-05-10T05:26:54;1.20;;;1.00;;
12585;SDS011;6358;50.760;0.282;2023-05-10T05:29:20;1.33;;;1.13;;
12585;SDS011;6358;50.760;0.282;2023-05-10T05:31:46;1.07;;;0.97;;
12585;SDS011;6358;50.760;0.282;2023-05-10T05:34:12;0.80;;;0.80;;
12585;SDS011;6358;50.760;0.282;2023-05-10T05:36:38;1.50;;;0.93;;
12585;SDS011;6358;50.760;0.282;2023-05-10T05:39:04;1.07;;;0.97;;
12585;SDS011;6358;50.760;0.282;2023-05-10T05:41:30;1.30;;;1.00;;
12585;SDS011;6358;50.760;0.282;2023-05-10T05:43:56;1.00;;;1.00;;
12585;SDS011;6358;50.760;0.282;2023-05-10T05:46:22;1.00;;;0.90;;
12585;SDS011;6358;50.760;0.282;2023-05-10T05:48:48;1.43;;;1.33;;
12585;SDS011;6358;50.760;0.282;2023-05-10T05:51:14;1.20;;;1.10;;
12585;SDS011;6358;50.760;0.282;2023-05-10T05:53:41;1.23;;;1.13;;
12585;SDS011;6358;50.760;0.282;2023-05-10T05:56:07;1.43;;;1.00;;
12585;SDS011;6358;50.760;0.282;2023-05-10T05:58:34;1.10;;;1.10;;
12585;SDS011;6358;50.760;0.282;2023-05-10T06:01:00;0.90;;;0.90;;
12585;SDS011;6358;50.760;0.282;2023-05-10T06:03:26;1.30;;;1.10;;
12585;SDS011;6358;50.760;0.282;2023-05-10T06:05:52;1.00;;;1.00;;
12585;SDS011;6358;50.760;0.282;2023-05-10T06:08:18;1.20;;;1.10;;
12585;SDS011;6358;50.760;0.282;2023-05-10T06:10:45;1.30;;;1.20;;
12585;SDS011;6358;50.760;0.282;2023-05-10T06:13:11;1.43;;;1.20;;
12585;SDS011;6358;50.760;0.282;2023-05-10T06:15:37;1.63;;;1.20;;
12585;SDS011;6358;50.760;0.282;2023-05-10T06:18:03;1.10;;;1.10;;
12585;SDS011;6358;50.760;0.282;2023-05-10T06:20:30;1.13;;;1.03;;
12585;SDS011;6358;50.760;0.282;2023-05-10T06:22:56;1.50;;;1.40;;
12585;SDS011;6358;50.760;0.282;2023-05-10T06:25:23;1.33;;;1.23;;
12585;SDS011;6358;50.760;0.282;2023-05-10T06:27:49;1.10;;;1.10;;
12585;SDS011;6358;50.760;0.282;2023-05-10T06:30:15;2.00;;;1.20;;
12585;SDS011;6358;50.760;0.282;2023-05-10T06:32:41;1.30;;;1.20;;
12585;SDS011;6358;50.760;0.282;2023-05-10T06:35:09;1.90;;;1.23;;
12585;SDS011;6358;50.760;0.282;2023-05-10T06:37:35;1.30;;;1.20;;
12585;SDS011;6358;50.760;0.282;2023-05-10T06:40:01;1.97;;;1.10;;
12585;SDS011;6358;50.760;0.282;2023-05-10T06:42:27;2.30;;;1.10;;
12585;SDS011;6358;50.760;0.282;2023-05-10T06:44:53;1.57;;;1.20;;
12585;SDS011;6358;50.760;0.282;2023-05-10T06:47:19;1.23;;;1.10;;
12585;SDS011;6358;50.760;0.282;2023-05-10T06:49:46;1.30;;;1.20;;
12585;SDS011;6358;50.760;0.282;2023-05-10T06:52:12;1.73;;;1.27;;
12585;SDS011;6358;50.760;0.282;2023-05-10T06:54:38;2.43;;;1.50;;
12585;SDS011;6358;50.760;0.282;2023-05-10T06:57:04;1.30;;;1.20;;
12585;SDS011;6358;50.760;0.282;2023-05-10T06:59:30;1.10;;;1.10;;
12585;SDS011;6358;50.760;0.282;2023-05-10T07:01:56;1.20;;;1.10;;
12585;SDS011;6358;50.760;0.282;2023-05-10T07:04:22;1.20;;;1.10;;
12585;SDS011;6358;50.760;0.282;2023-05-10T07:06:48;1.57;;;1.30;;
12585;SDS011;6358;50.760;0.282;2023-05-10T07:09:14;1.30;;;1.20;;
12585;SDS011;6358;50.760;0.282;2023-05-10T07:11:41;1.30;;;1.20;;
12585;SDS011;6358;50.760;0.282;2023-05-10T07:14:07;1.97;;;1.27;;
12585;SDS011;6358;50.760;0.282;2023-05-10T07:16:33;1.53;;;1.30;;
12585;SDS011;6358;50.760;0.282;2023-05-10T07:18:59;1.83;;;1.40;;
12585;SDS011;6358;50.760;0.282;2023-05-10T07:21:25;1.43;;;1.30;;
12585;SDS011;6358;50.760;0.282;2023-05-10T07:23:53;1.30;;;1.20;;
12585;SDS011;6358;50.760;0.282;2023-05-10T07:26:19;1.40;;;1.20;;
12585;SDS011;6358;50.760;0.282;2023-05-10T07:28:46;1.50;;;1.10;;
12585;SDS011;6358;50.760;0.282;2023-05-10T07:31:12;1.40;;;1.20;;
12585;SDS011;6358;50.760;0.282;2023-05-10T07:33:38;1.40;;;1.30;;
12585;SDS011;6358;50.760;0.282;2023-05-10T07:36:04;1.37;;;1.27;;
12585;SDS011;6358;50.760;0.282;2023-05-10T07:38:31;1.10;;;1.10;;
12585;SDS011;6358;50.760;0.282;2023-05-10T07:40:57;1.50;;;1.40;;
12585;SDS011;6358;50.760;0.282;2023-05-10T07:43:23;2.30;;;1.30;;
12585;SDS011;6358;50.760;0.282;2023-05-10T07:45:49;1.30;;;1.20;;
12585;SDS011;6358;50.760;0.282;2023-05-10T07:48:15;1.97;;;1.40;;
12585;SDS011;6358;50.760;0.282;2023-05-10T07:50:41;1.80;;;1.40;;
12585;SDS011;6358;50.760;0.282;2023-05-10T07:53:07;1.77;;;1.50;;
12585;SDS011;6358;50.760;0.282;2023-05-10T07:55:33;1.60;;;1.43;;
12585;SDS011;6358;50.760;0.282;2023-05-10T07:57:59;1.40;;;1.30;;
12585;SDS011;6358;50.760;0.282;2023-05-10T08:00:28;1.60;;;1.27;;
12585;SDS011;6358;50.760;0.282;2023-05-10T08:02:55;1.40;;;1.30;;
12585;SDS011;6358;50.760;0.282;2023-05-10T08:05:21;1.40;;;1.30;;
12585;SDS011;6358;50.760;0.282;2023-05-10T08:07:47;1.40;;;1.20;;
12585;SDS011;6358;50.760;0.282;2023-05-10T08:10:13;1.50;;;1.40;;
12585;SDS011;6358;50.760;0.282;2023-05-10T08:12:39;1.40;;;1.30;;
12585;SDS011;6358;50.760;0.282;2023-05-10T08:15:05;2.00;;;1.33;;
12585;SDS011;6358;50.760;0.282;2023-05-10T08:17:32;2.60;;;1.33;;
12585;SDS011;6358;50.760;0.282;2023-05-10T08:19:58;2.10;;;1.33;;
12585;SDS011;6358;50.760;0.282;2023-05-10T08:22:24;1.57;;;1.33;;
12585;SDS011;6358;50.760;0.282;2023-05-10T08:24:51;1.73;;;1.30;;
12585;SDS011;6358;50.760;0.282;2023-05-10T08:27:17;1.37;;;1.27;;
12585;SDS011;6358;50.760;0.282;2023-05-10T08:29:43;2.73;;;1.80;;
12585;SDS011;6358;50.760;0.282;2023-05-10T08:32:09;1.60;;;1.50;;
12585;SDS011;6358;50.760;0.282;2023-05-10T08:34:35;2.47;;;1.30;;
12585;SDS011;6358;50.760;0.282;2023-05-10T08:37:01;1.40;;;1.20;;
12585;SDS011;6358;50.760;0.282;2023-05-10T08:39:28;1.30;;;1.20;;
12585;SDS011;6358;50.760;0.282;2023-05-10T08:41:57;1.30;;;1.20;;
12585;SDS011;6358;50.760;0.282;2023-05-10T08:44:27;1.67;;;1.40;;
12585;SDS011;6358;50.760;0.282;2023-05-10T08:46:53;1.50;;;1.37;;
12585;SDS011;6358;50.760;0.282;2023-05-10T08:49:20;1.53;;;1.30;;
12585;SDS011;6358;50.760;0.282;2023-05-10T08:51:49;2.10;;;1.53;;
12585;SDS011;6358;50.760;0.282;2023-05-10T08:54:16;2.67;;;1.60;;
12585;SDS011;6358;50.760;0.282;2023-05-10T08:56:42;1.60;;;1.37;;
12585;SDS011;6358;50.760;0.282;2023-05-10T08:59:08;1.30;;;1.20;;
12585;SDS011;6358;50.760;0.282;2023-05-10T09:01:35;1.50;;;1.30;;
12585;SDS011;6358;50.760;0.282;2023-05-10T09:04:02;1.50;;;1.40;;
12585;SDS011;6358;50.760;0.282;2023-05-10T09:06:29;1.80;;;1.60;;
12585;SDS011;6358;50.760;0.282;2023-05-10T09:08:55;1.67;;;1.43;;
12585;SDS011;6358;50.760;0.282;2023-05-10T09:11:21;1.40;;;1.30;;
12585;SDS011;6358;50.760;0.282;2023-05-10T09:13:48;1.57;;;1.37;;
12585;SDS011;6358;50.760;0.282;2023-05-10T09:16:16;1.73;;;1.50;;
12585;SDS011;6358;50.760;0.282;2023-05-10T09:18:42;1.47;;;1.37;;
12585;SDS011;6358;50.760;0.282;2023-05-10T09:21:09;1.47;;;1.30;;
12585;SDS011;6358;50.760;0.282;2023-05-10T09:23:35;1.50;;;1.40;;
12585;SDS011;6358;50.760;0.282;2023-05-10T09:26:02;2.80;;;1.80;;
12585;SDS011;6358;50.760;0.282;2023-05-10T09:28:33;1.47;;;1.30;;
12585;SDS011;6358;50.760;0.282;2023-05-10T09:30:59;1.50;;;1.40;;
12585;SDS011;6358;50.760;0.282;2023-05-10T09:33:25;3.00;;;1.60;;
12585;SDS011;6358;50.760;0.282;2023-05-10T09:35:51;2.13;;;1.50;;
12585;SDS011;6358;50.760;0.282;2023-05-10T09:38:17;2.03;;;1.50;;
12585;SDS011;6358;50.760;0.282;2023-05-10T09:40:50;1.30;;;1.20;;
12585;SDS011;6358;50.760;0.282;2023-05-10T09:43:21;2.07;;;1.50;;
12585;SDS011;6358;50.760;0.282;2023-05-10T09:45:47;1.70;;;1.60;;
12585;SDS011;6358;50.760;0.282;2023-05-10T09:48:18;1.73;;;1.37;;
12585;SDS011;6358;50.760;0.282;2023-05-10T09:50:44;2.40;;;1.60;;
12585;SDS011;6358;50.760;0.282;2023-05-10T09:53:10;1.53;;;1.43;;
12585;SDS011;6358;50.760;0.282;2023-05-10T09:55:42;2.93;;;1.70;;
12585;SDS011;6358;50.760;0.282;2023-05-10T09:58:12;2.40;;;1.60;;
12585;SDS011;6358;50.760;0.282;2023-05-10T10:00:39;1.60;;;1.50;;
12585;SDS011;6358;50.760;0.282;2023-05-10T10:03:06;3.63;;;1.80;;
12585;SDS011;6358;50.760;0.282;2023-05-10T10:05:33;1.63;;;1.50;;
12585;SDS011;6358;50.760;0.282;2023-05-10T10:08:00;2.47;;;1.60;;
12585;SDS011;6358;50.760;0.282;2023-05-10T10:10:26;1.90;;;1.60;;
12585;SDS011;6358;50.760;0.282;2023-05-10T10:12:53;1.63;;;1.40;;
12585;SDS011;6358;50.760;0.282;2023-05-10T10:15:23;2.63;;;1.80;;
12585;SDS011;6358;50.760;0.282;2023-05-10T10:17:49;1.50;;;1.40;;
12585;SDS011;6358;50.760;0.282;2023-05-10T10:20:16;2.93;;;1.70;;
12585;SDS011;6358;50.760;0.282;2023-05-10T10:22:42;2.53;;;1.60;;
12585;SDS011;6358;50.760;0.282;2023-05-10T10:25:12;2.47;;;1.70;;
12585;SDS011;6358;50.760;0.282;2023-05-10T10:35:18;3.63;;;1.67;;
12585;SDS011;6358;50.760;0.282;2023-05-10T10:37:45;2.00;;;1.40;;
12585;SDS011;6358;50.760;0.282;2023-05-10T10:40:24;2.93;;;1.93;;
12585;SDS011;6358;50.760;0.282;2023-05-10T10:42:51;2.83;;;2.00;;
12585;SDS011;6358;50.760;0.282;2023-05-10T10:45:18;2.33;;;1.50;;
12585;SDS011;6358;50.760;0.282;2023-05-10T10:47:45;2.00;;;1.70;;
12585;SDS011;6358;50.760;0.282;2023-05-10T10:50:11;2.47;;;1.80;;
12585;SDS011;6358;50.760;0.282;2023-05-10T10:52:42;1.77;;;1.57;;
12585;SDS011;6358;50.760;0.282;2023-05-10T10:55:16;2.13;;;1.77;;
12585;SDS011;6358;50.760;0.282;2023-05-10T11:02:46;2.20;;;1.87;;
12585;SDS011;6358;50.760;0.282;2023-05-10T11:05:23;2.57;;;1.70;;
12585;SDS011;6358;50.760;0.282;2023-05-10T11:07:56;1.73;;;1.57;;
12585;SDS011;6358;50.760;0.282;2023-05-10T11:10:23;3.23;;;1.60;;
12585;SDS011;6358;50.760;0.282;2023-05-10T11:12:53;2.07;;;1.80;;
12585;SDS011;6358;50.760;0.282;2023-05-10T11:15:27;2.57;;;1.80;;
12585;SDS011;6358;50.760;0.282;2023-05-10T11:17:54;2.87;;;1.80;;
12585;SDS011;6358;50.760;0.282;2023-05-10T11:20:20;2.13;;;1.50;;
12585;SDS011;6358;50.760;0.282;2023-05-10T11:22:50;2.13;;;1.80;;
12585;SDS011;6358;50.760;0.282;2023-05-10T11:25:17;2.60;;;1.90;;
12585;SDS011;6358;50.760;0.282;2023-05-10T11:27:43;1.83;;;1.60;;
12585;SDS011;6358;50.760;0.282;2023-05-10T11:30:10;2.40;;;1.57;;
12585;SDS011;6358;50.760;0.282;2023-05-10T11:32:39;2.87;;;1.87;;
12585;SDS011;6358;50.760;0.282;2023-05-10T11:35:09;2.37;;;1.60;;
12585;SDS011;6358;50.760;0.282;2023-05-10T11:37:36;1.80;;;1.60;;
12585;SDS011;6358;50.760;0.282;2023-05-10T11:40:04;1.87;;;1.70;;
12585;SDS011;6358;50.760;0.282;2023-05-10T11:42:30;2.53;;;1.70;;
12585;SDS011;6358;50.760;0.282;2023-05-10T11:44:56;3.13;;;1.73;;
12585;SDS011;6358;50.760;0.282;2023-05-10T11:47:22;2.10;;;1.70;;
12585;SDS011;6358;50.760;0.282;2023-05-10T11:49:49;2.30;;;1.80;;
12585;SDS011;6358;50.760;0.282;2023-05-10T11:52:15;2.00;;;1.77;;
12585;SDS011;6358;50.760;0.282;2023-05-10T11:54:45;2.97;;;1.77;;
12585;SDS011;6358;50.760;0.282;2023-05-10T11:57:11;2.60;;;1.90;;
12585;SDS011;6358;50.760;0.282;2023-05-10T11:59:38;2.63;;;2.10;;
12585;SDS011;6358;50.760;0.282;2023-05-10T12:02:04;2.07;;;1.80;;
12585;SDS011;6358;50.760;0.282;2023-05-10T12:04:30;3.33;;;1.90;;
12585;SDS011;6358;50.760;0.282;2023-05-10T12:06:56;2.63;;;1.50;;
12585;SDS011;6358;50.760;0.282;2023-05-10T12:09:22;2.40;;;1.80;;
12585;SDS011;6358;50.760;0.282;2023-05-10T12:11:48;2.73;;;1.80;;
12585;SDS011;6358;50.760;0.282;2023-05-10T12:14:15;2.67;;;1.90;;
12585;SDS011;6358;50.760;0.282;2023-05-10T12:16:42;2.53;;;1.70;;
12585;SDS011;6358;50.760;0.282;2023-05-10T12:19:08;3.80;;;1.90;;
12585;SDS011;6358;50.760;0.282;2023-05-10T12:21:34;3.00;;;1.90;;
12585;SDS011;6358;50.760;0.282;2023-05-10T12:24:02;2.97;;;1.93;;
12585;SDS011;6358;50.760;0.282;2023-05-10T12:26:28;2.33;;;1.80;;
12585;SDS011;6358;50.760;0.282;2023-05-10T12:28:55;3.93;;;1.97;;
12585;SDS011;6358;50.760;0.282;2023-05-10T12:31:21;3.73;;;1.83;;
12585;SDS011;6358;50.760;0.282;2023-05-10T12:33:47;1.70;;;1.60;;
12585;SDS011;6358;50.760;0.282;2023-05-10T12:36:15;3.17;;;2.00;;
12585;SDS011;6358;50.760;0.282;2023-05-10T12:38:41;2.77;;;1.77;;
12585;SDS011;6358;50.760;0.282;2023-05-10T12:41:13;2.53;;;1.80;;
12585;SDS011;6358;50.760;0.282;2023-05-10T12:43:39;2.10;;;1.80;;
12585;SDS011;6358;50.760;0.282;2023-05-10T12:48:32;2.80;;;1.60;;
12585;SDS011;6358;50.760;0.282;2023-05-10T12:50:59;2.40;;;1.90;;
12585;SDS011;6358;50.760;0.282;2023-05-10T12:53:25;2.20;;;1.77;;
12585;SDS011;6358;50.760;0.282;2023-05-10T12:55:51;3.53;;;2.07;;
12585;SDS011;6358;50.760;0.282;2023-05-10T12:58:18;2.63;;;1.70;;
12585;SDS011;6358;50.760;0.282;2023-05-10T13:00:44;2.27;;;1.70;;
12585;SDS011;6358;50.760;0.282;2023-05-10T13:03:11;2.40;;;1.90;;
12585;SDS011;6358;50.760;0.282;2023-05-10T13:05:37;3.10;;;1.90;;
12585;SDS011;6358;50.760;0.282;2023-05-10T13:08:03;3.17;;;1.90;;
12585;SDS011;6358;50.760;0.282;2023-05-10T13:10:30;2.30;;;1.80;;
12585;SDS011;6358;50.760;0.282;2023-05-10T13:12:57;3.50;;;2.00;;
12585;SDS011;6358;50.760;0.282;2023-05-10T13:15:23;1.80;;;1.60;;
12585;SDS011;6358;50.760;0.282;2023-05-10T13:17:49;2.27;;;1.70;;
12585;SDS011;6358;50.760;0.282;2023-05-10T13:20:15;3.00;;;1.90;;
12585;SDS011;6358;50.760;0.282;2023-05-10T13:22:42;2.77;;;1.80;;
12585;SDS011;6358;50.760;0.282;2023-05-10T13:25:08;3.90;;;1.87;;
12585;SDS011;6358;50.760;0.282;2023-05-10T13:27:35;4.73;;;2.00;;
12585;SDS011;6358;50.760;0.282;2023-05-10T13:30:01;3.90;;;1.80;;
12585;SDS011;6358;50.760;0.282;2023-05-10T13:32:28;3.23;;;1.90;;
12585;SDS011;6358;50.760;0.282;2023-05-10T13:34:54;1.97;;;1.63;;
12585;SDS011;6358;50.760;0.282;2023-05-10T13:37:20;2.03;;;1.60;;
12585;SDS011;6358;50.760;0.282;2023-05-10T13:39:47;4.13;;;1.80;;
12585;SDS011;6358;50.760;0.282;2023-05-10T13:42:13;2.47;;;1.73;;
12585;SDS011;6358;50.760;0.282;2023-05-10T13:44:40;3.03;;;1.70;;
12585;SDS011;6358;50.760;0.282;2023-05-10T13:47:06;3.03;;;1.80;;
12585;SDS011;6358;50.760;0.282;2023-05-10T13:49:32;2.73;;;1.80;;
12585;SDS011;6358;50.760;0.282;2023-05-10T13:51:59;3.37;;;1.87;;
12585;SDS011;6358;50.760;0.282;2023-05-10T13:54:31;3.00;;;1.83;;
12585;SDS011;6358;50.760;0.282;2023-05-10T13:56:57;4.17;;;1.83;;
12585;SDS011;6358;50.760;0.282;2023-05-10T13:59:24;3.10;;;2.00;;
12585;SDS011;6358;50.760;0.282;2023-05-10T14:01:50;2.53;;;1.57;;
12585;SDS011;6358;50.760;0.282;2023-05-10T14:04:16;3.33;;;1.70;;
12585;SDS011;6358;50.760;0.282;2023-05-10T14:06:42;2.33;;;1.57;;
12585;SDS011;6358;50.760;0.282;2023-05-10T14:09:08;2.50;;;1.77;;
12585;SDS011;6358;50.760;0.282;2023-05-10T14:11:34;3.13;;;1.70;;
12585;SDS011;6358;50.760;0.282;2023-05-10T14:14:00;4.20;;;1.93;;
12585;SDS011;6358;50.760;0.282;2023-05-10T14:16:27;2.53;;;1.73;;
12585;SDS011;6358;50.760;0.282;2023-05-10T14:18:53;4.40;;;1.73;;
12585;SDS011;6358;50.760;0.282;2023-05-10T14:21:19;2.50;;;1.70;;
12585;SDS011;6358;50.760;0.282;2023-05-10T14:23:45;3.10;;;1.70;;
12585;SDS011;6358;50.760;0.282;2023-05-10T14:26:11;3.07;;;1.67;;
12585;SDS011;6358;50.760;0.282;2023-05-10T14:28:38;3.20;;;1.57;;
12585;SDS011;6358;50.760;0.282;2023-05-10T14:31:04;3.20;;;1.70;;
12585;SDS011;6358;50.760;0.282;2023-05-10T14:33:30;2.97;;;1.50;;
12585;SDS011;6358;50.760;0.282;2023-05-10T14:35:56;3.37;;;1.80;;
12585;SDS011;6358;50.760;0.282;2023-05-10T14:38:22;4.57;;;1.70;;
12585;SDS011;6358;50.760;0.282;2023-05-10T14:40:49;4.60;;;2.30;;
12585;SDS011;6358;50.760;0.282;2023-05-10T14:43:15;2.33;;;1.50;;
12585;SDS011;6358;50.760;0.282;2023-05-10T14:45:41;2.50;;;1.60;;
12585;SDS011;6358;50.760;0.282;2023-05-10T14:48:07;3.03;;;1.77;;
12585;SDS011;6358;50.760;0.282;2023-05-10T14:50:37;2.83;;;1.90;;
12585;SDS011;6358;50.760;0.282;2023-05-10T14:53:03;2.93;;;1.60;;
12585;SDS011;6358;50.760;0.282;2023-05-10T14:55:29;3.03;;;1.67;;
12585;SDS011;6358;50.760;0.282;2023-05-10T14:57:55;2.93;;;1.80;;
12585;SDS011;6358;50.760;0.282;2023-05-10T15:00:23;2.70;;;1.67;;
12585;SDS011;6358;50.760;0.282;2023-05-10T15:02:49;4.97;;;2.03;;
12585;SDS011;6358;50.760;0.282;2023-05-10T15:05:15;3.53;;;1.70;;
12585;SDS011;6358;50.760;0.282;2023-05-10T15:07:42;2.70;;;1.70;;
12585;SDS011;6358;50.760;0.282;2023-05-10T15:10:09;2.87;;;1.60;;
12585;SDS011;6358;50.760;0.282;2023-05-10T15:12:36;1.70;;;1.50;;
12585;SDS011;6358;50.760;0.282;2023-05-10T15:15:02;3.50;;;1.97;;
12585;SDS011;6358;50.760;0.282;2023-05-10T15:17:28;3.77;;;2.00;;
12585;SDS011;6358;50.760;0.282;2023-05-10T15:19:55;3.40;;;1.60;;
12585;SDS011;6358;50.760;0.282;2023-05-10T15:22:21;2.17;;;1.47;;
12585;SDS011;6358;50.760;0.282;2023-05-10T15:24:47;2.83;;;1.50;;
12585;SDS011;6358;50.760;0.282;2023-05-10T15:27:13;3.07;;;1.80;;
12585;SDS011;6358;50.760;0.282;2023-05-10T15:29:39;3.27;;;1.80;;
12585;SDS011;6358;50.760;0.282;2023-05-10T15:32:07;3.03;;;1.47;;
12585;SDS011;6358;50.760;0.282;2023-05-10T15:34:35;2.27;;;1.50;;